createdAt,value
2023-04-05T00:01:09.095Z,48.45
2023-04-05T00:03:37.323Z,48.52
2023-04-05T00:06:06.697Z,48.83
2023-04-05T00:08:34.766Z,48.88
2023-04-05T00:11:02.752Z,49.11
2023-04-05T00:13:31.790Z,49.04
2023-04-05T00:16:02.160Z,49.32
2023-04-05T00:18:35.403Z,49.55
2023-04-05T00:21:03.420Z,49.12
2023-04-05T00:23:38.901Z,48.79
2023-04-05T00:26:06.879Z,48.72
2023-04-05T00:28:36.052Z,49.12
2023-04-05T00:31:05.031Z,48.92
2023-04-05T00:33:33.349Z,49.04
2023-04-05T00:36:17.619Z,48.88
2023-04-05T00:38:46.597Z,48.87
2023-04-05T00:41:15.240Z,48.79
2023-04-05T00:43:43.505Z,48.79
2023-04-05T00:46:11.896Z,48.85
2023-04-05T00:48:40.572Z,48.90
2023-04-05T00:51:12.813Z,48.87
2023-04-05T00:53:42.265Z,48.87
2023-04-05T00:56:11.609Z,48.76
2023-04-05T00:58:39.496Z,48.69
2023-04-05T01:01:19.841Z,48.70
2023-04-05T01:03:57.321Z,48.73
2023-04-05T01:07:04.633Z,48.75
2023-04-05T01:09:57.374Z,48.63
2023-04-05T01:12:29.014Z,48.67
2023-04-05T01:14:57.378Z,48.69
2023-04-05T01:17:29.669Z,48.69
2023-04-05T01:20:01.755Z,48.78
2023-04-05T01:23:06.110Z,49.08
2023-04-05T01:25:43.330Z,49.03
2023-04-05T01:28:40.325Z,49.22
2023-04-05T01:31:08.132Z,49.16
2023-04-05T01:33:50.860Z,49.08
2023-04-05T01:36:32.713Z,49.16
2023-04-05T01:39:03.947Z,49.43
2023-04-05T01:41:32.905Z,49.41
2023-04-05T01:44:00.872Z,49.48
2023-04-05T01:46:28.814Z,49.62
2023-04-05T01:48:56.853Z,49.73
2023-04-05T01:51:24.801Z,49.60
2023-04-05T01:53:52.788Z,49.59
2023-04-05T01:56:20.704Z,49.90
2023-04-05T01:58:48.664Z,50.12
2023-04-05T02:01:16.828Z,50.29
2023-04-05T02:03:44.861Z,50.86
2023-04-05T02:06:12.944Z,51.22
2023-04-05T02:08:40.848Z,51.89
2023-04-05T02:11:08.800Z,51.62
2023-04-05T02:13:36.684Z,51.88
2023-04-05T02:16:04.748Z,51.98
2023-04-05T02:18:33.122Z,51.79
2023-04-05T02:21:09.369Z,51.59
2023-04-05T02:23:39.697Z,51.66
2023-04-05T02:26:07.749Z,51.47
2023-04-05T02:28:35.830Z,51.32
2023-04-05T02:31:03.730Z,51.17
2023-04-05T02:33:32.544Z,50.99
2023-04-05T02:36:00.516Z,50.80
2023-04-05T02:38:28.458Z,50.78
2023-04-05T02:40:56.689Z,50.50
2023-04-05T02:43:24.727Z,50.98
2023-04-05T02:45:53.262Z,51.28
2023-04-05T02:48:21.312Z,50.95
2023-04-05T02:50:53.334Z,51.04
2023-04-05T02:53:21.236Z,50.72
2023-04-05T02:55:58.133Z,50.84
2023-04-05T02:58:26.068Z,50.70
2023-04-05T03:00:55.537Z,50.85
2023-04-05T03:03:24.742Z,50.81
2023-04-05T03:06:01.808Z,50.84
2023-04-05T03:08:30.107Z,50.79
2023-04-05T03:10:57.958Z,50.71
2023-04-05T03:13:25.818Z,50.67
2023-04-05T03:15:56.327Z,50.86
2023-04-05T03:18:27.023Z,50.85
2023-04-05T03:20:58.058Z,51.32
2023-04-05T03:23:33.302Z,51.10
2023-04-05T03:26:04.940Z,51.45
2023-04-05T03:28:35.587Z,51.30
2023-04-05T03:31:03.469Z,51.29
2023-04-05T03:33:31.504Z,51.77
2023-04-05T03:35:59.408Z,52.18
2023-04-05T03:38:29.700Z,52.37
2023-04-05T03:40:57.591Z,53.27
2023-04-05T03:43:25.825Z,53.37
2023-04-05T03:45:54.020Z,53.37
2023-04-05T03:48:23.067Z,53.22
2023-04-05T03:50:50.970Z,53.80
2023-04-05T03:53:19.625Z,53.69
2023-04-05T03:55:50.718Z,53.68
2023-04-05T03:58:18.983Z,53.98
2023-04-05T04:00:46.878Z,53.82
2023-04-05T04:03:15.514Z,54.06
2023-04-05T04:05:43.869Z,54.32
2023-04-05T04:08:12.298Z,54.36
2023-04-05T04:10:40.356Z,54.45
2023-04-05T04:13:08.195Z,54.95
2023-04-05T04:15:36.048Z,55.71
2023-04-05T04:18:03.975Z,55.34
2023-04-05T04:20:31.942Z,55.49
2023-04-05T04:23:00.210Z,56.38
2023-04-05T04:25:32.000Z,56.45
2023-04-05T04:28:00.126Z,56.99
2023-04-05T04:30:28.080Z,57.58
2023-04-05T04:32:56.519Z,57.25
2023-04-05T04:35:29.370Z,57.03
2023-04-05T04:37:59.325Z,57.39
2023-04-05T04:40:41.159Z,57.20
2023-04-05T04:43:20.214Z,57.67
2023-04-05T04:45:49.591Z,57.67
2023-04-05T04:48:18.262Z,58.13
2023-04-05T04:50:47.188Z,57.78
2023-04-05T04:53:18.612Z,57.46
2023-04-05T04:55:46.772Z,57.40
2023-04-05T04:58:14.941Z,57.26
2023-04-05T05:00:45.515Z,57.43
2023-04-05T05:03:14.219Z,57.60
2023-04-05T05:05:51.482Z,57.62
2023-04-05T05:08:21.458Z,58.16
2023-04-05T05:10:55.905Z,57.95
2023-04-05T05:13:23.916Z,57.90
2023-04-05T05:15:51.861Z,57.80
2023-04-05T05:18:19.981Z,57.79
2023-04-05T05:20:51.902Z,57.98
2023-04-05T05:23:19.825Z,58.50
2023-04-05T05:25:47.793Z,57.88
2023-04-05T05:28:15.740Z,57.99
2023-04-05T05:30:43.934Z,57.71
2023-04-05T05:33:12.201Z,58.22
2023-04-05T05:35:40.162Z,58.13
2023-04-05T05:38:10.186Z,58.01
2023-04-05T05:40:40.371Z,58.03
2023-04-05T05:43:08.517Z,57.91
2023-04-05T05:45:36.399Z,58.10
2023-04-05T05:48:04.499Z,57.64
2023-04-05T05:50:34.269Z,57.71
2023-04-05T05:53:02.345Z,57.89
2023-04-05T05:55:30.254Z,57.68
2023-04-05T05:57:58.285Z,57.72
2023-04-05T06:00:26.374Z,58.04
2023-04-05T06:02:55.079Z,57.63
2023-04-05T06:05:23.036Z,57.69
2023-04-05T06:07:50.921Z,57.46
2023-04-05T06:10:19.186Z,57.46
2023-04-05T06:12:47.373Z,57.43
2023-04-05T06:15:15.324Z,57.37
2023-04-05T06:17:43.873Z,57.28
2023-04-05T06:20:14.751Z,57.37
2023-04-05T06:22:43.010Z,57.47
2023-04-05T06:25:11.461Z,57.03
2023-04-05T06:27:39.460Z,56.69
2023-04-05T06:30:08.257Z,56.29
2023-04-05T06:32:36.237Z,56.16
2023-04-05T06:35:07.336Z,56.03
2023-04-05T06:37:35.229Z,55.99
2023-04-05T06:40:03.284Z,55.75
2023-04-05T06:42:31.177Z,55.25
2023-04-05T06:44:59.222Z,56.71
2023-04-05T06:47:27.515Z,55.89
2023-04-05T06:49:55.455Z,53.82
2023-04-05T06:52:23.402Z,54.64
2023-04-05T06:54:51.287Z,53.51
2023-04-05T06:57:20.027Z,53.09
2023-04-05T06:59:47.977Z,52.55
2023-04-05T07:02:15.918Z,52.31
2023-04-05T07:04:43.839Z,52.06
2023-04-05T07:07:12.248Z,51.80
2023-04-05T07:09:40.569Z,51.63
2023-04-05T07:12:10.237Z,51.38
2023-04-05T07:14:39.360Z,50.89
2023-04-05T07:17:08.676Z,50.88
2023-04-05T07:19:36.888Z,51.03
2023-04-05T07:22:04.817Z,50.83
2023-04-05T07:24:33.200Z,50.61
2023-04-05T07:27:01.049Z,50.52
2023-04-05T07:29:29.206Z,49.87
2023-04-05T07:31:57.184Z,49.99
2023-04-05T07:34:25.105Z,49.97
2023-04-05T07:36:53.505Z,49.35
2023-04-05T07:39:22.989Z,49.33
2023-04-05T07:41:51.528Z,48.85
2023-04-05T07:44:19.595Z,49.26
2023-04-05T07:46:49.052Z,49.30
2023-04-05T07:49:17.262Z,49.66
2023-04-05T07:51:45.172Z,49.89
2023-04-05T07:54:13.192Z,50.08
2023-04-05T07:56:41.054Z,49.99
2023-04-05T07:59:10.757Z,49.54
2023-04-05T08:01:39.448Z,49.34
2023-04-05T08:04:07.487Z,49.23
2023-04-05T08:06:36.605Z,49.23
2023-04-05T08:09:07.012Z,49.35
2023-04-05T08:11:35.451Z,49.02
2023-04-05T08:14:03.542Z,48.85
2023-04-05T08:16:31.677Z,48.85
2023-04-05T08:18:59.642Z,48.66
2023-04-05T08:21:27.958Z,48.66
2023-04-05T08:23:55.890Z,48.28
2023-04-05T08:26:24.122Z,48.32
2023-04-05T08:28:52.059Z,48.19
2023-04-05T08:31:20.206Z,47.89
2023-04-05T08:33:48.348Z,47.90
2023-04-05T08:36:16.360Z,47.17
2023-04-05T08:38:44.273Z,47.75
2023-04-05T08:41:25.431Z,47.36
2023-04-05T08:44:04.517Z,47.17
2023-04-05T08:46:36.226Z,47.00
2023-04-05T08:49:12.876Z,46.53
2023-04-05T08:51:41.011Z,46.41
2023-04-05T08:54:09.116Z,46.49
2023-04-05T08:56:38.266Z,46.61
2023-04-05T08:59:12.147Z,46.68
2023-04-05T09:01:45.553Z,46.31
2023-04-05T09:04:24.654Z,45.92
2023-04-05T09:06:53.809Z,45.76
2023-04-05T09:09:22.921Z,45.80
2023-04-05T09:11:51.698Z,45.71
2023-04-05T09:14:22.043Z,45.56
2023-04-05T09:16:50.156Z,45.52
2023-04-05T09:19:18.320Z,45.07
2023-04-05T09:22:02.628Z,44.54
2023-04-05T09:24:34.586Z,44.42
2023-04-05T09:27:16.170Z,43.51
2023-04-05T09:29:45.802Z,44.36
2023-04-05T09:32:14.785Z,44.33
2023-04-05T09:34:44.114Z,44.17
2023-04-05T09:37:19.114Z,44.30
2023-04-05T09:39:48.644Z,43.16
2023-04-05T09:42:21.711Z,43.55
2023-04-05T09:45:03.741Z,43.22
2023-04-05T09:47:33.957Z,42.37
2023-04-05T09:50:03.171Z,43.00
2023-04-05T09:52:35.531Z,42.81
2023-04-05T09:55:05.928Z,41.16
2023-04-05T09:57:41.384Z,42.15
2023-04-05T10:00:20.625Z,41.92
2023-04-05T10:02:48.829Z,42.46
2023-04-05T10:05:17.064Z,42.64
2023-04-05T10:07:45.599Z,42.52
2023-04-05T10:10:14.225Z,41.35
2023-04-05T10:12:43.057Z,41.39
2023-04-05T10:15:12.565Z,41.67
2023-04-05T10:18:05.422Z,41.56
2023-04-05T10:20:40.844Z,40.47
2023-04-05T10:23:12.366Z,40.98
2023-04-05T10:25:55.739Z,40.82
2023-04-05T10:28:42.789Z,40.63
2023-04-05T10:31:56.688Z,40.29
2023-04-05T10:34:41.165Z,40.37
2023-04-05T10:37:13.197Z,40.47
2023-04-05T10:39:48.336Z,40.64
2023-04-05T10:42:26.887Z,40.16
2023-04-05T10:45:01.739Z,39.94
2023-04-05T10:47:32.837Z,39.95
2023-04-05T10:50:10.033Z,40.12
2023-04-05T10:52:38.697Z,39.94
2023-04-05T10:55:07.560Z,39.93
2023-04-05T10:57:36.487Z,39.50
2023-04-05T11:00:05.097Z,39.84
2023-04-05T11:02:33.830Z,39.89
2023-04-05T11:05:06.379Z,39.96
2023-04-05T11:07:48.052Z,39.61
2023-04-05T11:10:20.524Z,38.96
2023-04-05T11:12:48.372Z,39.06
2023-04-05T11:15:34.646Z,39.23
2023-04-05T11:18:13.486Z,39.04
2023-04-05T11:20:57.144Z,38.54
2023-04-05T11:23:26.718Z,38.71
2023-04-05T11:26:07.026Z,38.58
2023-04-05T11:28:40.822Z,38.74
2023-04-05T11:31:20.480Z,38.69
2023-04-05T11:33:56.344Z,37.91
2023-04-05T11:36:39.361Z,38.57
2023-04-05T11:39:19.437Z,38.08
2023-04-05T11:41:49.155Z,38.06
2023-04-05T11:44:17.834Z,37.81
2023-04-05T11:46:47.768Z,36.98
2023-04-05T11:49:16.333Z,37.13
2023-04-05T11:51:44.746Z,36.87
2023-04-05T11:54:12.881Z,35.87
2023-04-05T11:56:40.814Z,36.66
2023-04-05T11:59:08.951Z,35.30
2023-04-05T12:01:37.074Z,35.80
2023-04-05T12:04:09.011Z,36.24
2023-04-05T12:06:36.991Z,36.40
2023-04-05T12:09:08.788Z,36.10
2023-04-05T12:11:36.728Z,35.89
2023-04-05T12:14:05.224Z,36.01
2023-04-05T12:16:33.356Z,35.69
2023-04-05T12:19:02.101Z,35.84
2023-04-05T12:21:30.618Z,36.17
2023-04-05T12:23:59.498Z,36.01
2023-04-05T12:26:28.085Z,35.89
2023-04-05T12:29:00.448Z,35.96
2023-04-05T12:31:45.395Z,35.56
2023-04-05T12:34:15.921Z,35.73
2023-04-05T12:36:47.923Z,35.69
2023-04-05T12:39:17.833Z,35.36
2023-04-05T12:41:45.814Z,35.62
2023-04-05T12:44:17.303Z,35.60
2023-04-05T12:46:47.186Z,35.96
2023-04-05T12:49:17.921Z,35.71
2023-04-05T12:51:47.664Z,35.49
2023-04-05T12:54:25.862Z,35.08
2023-04-05T12:56:56.065Z,35.13
2023-04-05T12:59:25.201Z,34.97
2023-04-05T13:01:53.233Z,35.13
2023-04-05T13:04:21.292Z,35.22
2023-04-05T13:06:49.160Z,35.09
2023-04-05T13:09:17.148Z,34.98
2023-04-05T13:11:45.113Z,34.41
2023-04-05T13:14:13.183Z,34.61
2023-04-05T13:16:41.226Z,33.28
2023-04-05T13:19:09.456Z,34.17
2023-04-05T13:21:37.419Z,34.00
2023-04-05T13:24:05.612Z,33.92
2023-04-05T13:26:33.511Z,33.70
2023-04-05T13:29:01.448Z,33.90
2023-04-05T13:31:29.348Z,33.84
2023-04-05T13:33:57.386Z,33.97
2023-04-05T13:36:25.426Z,34.17
2023-04-05T13:38:53.374Z,34.32
2023-04-05T13:41:21.374Z,34.34
2023-04-05T13:43:49.308Z,34.48
2023-04-05T13:46:17.397Z,34.25
2023-04-05T13:48:45.356Z,33.98
2023-04-05T13:51:13.346Z,34.02
2023-04-05T13:53:41.312Z,34.04
2023-04-05T13:56:09.265Z,33.98
2023-04-05T13:58:37.460Z,33.98
2023-04-05T14:01:05.487Z,33.85
2023-04-05T14:03:33.596Z,34.18
2023-04-05T14:06:01.734Z,34.31
2023-04-05T14:08:29.662Z,34.38
2023-04-05T14:10:57.659Z,34.25
2023-04-05T14:13:25.519Z,34.11
2023-04-05T14:15:54.046Z,34.03
2023-04-05T14:18:22.400Z,34.00
2023-04-05T14:20:50.410Z,33.98
2023-04-05T14:23:18.337Z,34.17
2023-04-05T14:25:46.299Z,34.13
2023-04-05T14:28:14.181Z,34.18
2023-04-05T14:30:42.445Z,34.32
2023-04-05T14:33:10.648Z,34.20
2023-04-05T14:35:38.743Z,33.51
2023-04-05T14:38:07.007Z,32.80
2023-04-05T14:40:34.997Z,33.03
2023-04-05T14:43:03.636Z,33.80
2023-04-05T14:45:31.763Z,33.91
2023-04-05T14:47:59.839Z,33.79
2023-04-05T14:50:28.148Z,33.96
2023-04-05T14:52:56.236Z,33.65
2023-04-05T14:55:24.228Z,33.63
2023-04-05T14:57:52.323Z,33.78
2023-04-05T15:00:21.234Z,33.99
2023-04-05T15:02:50.077Z,33.95
2023-04-05T15:05:18.117Z,33.81
2023-04-05T15:07:46.027Z,33.63
2023-04-05T15:10:13.932Z,33.76
2023-04-05T15:12:42.021Z,33.82
2023-04-05T15:15:10.136Z,33.68
2023-04-05T15:17:38.066Z,33.62
2023-04-05T15:20:06.406Z,33.64
2023-04-05T15:22:35.026Z,33.47
2023-04-05T15:25:03.412Z,33.62
2023-04-05T15:27:31.428Z,33.52
2023-04-05T15:29:59.408Z,33.57
2023-04-05T15:32:27.434Z,33.55
2023-04-05T15:34:55.496Z,33.39
2023-04-05T15:37:23.415Z,33.55
2023-04-05T15:39:51.347Z,33.64
2023-04-05T15:42:20.051Z,33.56
2023-04-05T15:44:48.053Z,33.47
2023-04-05T15:47:16.068Z,33.50
2023-04-05T15:49:47.246Z,33.23
2023-04-05T15:52:16.747Z,33.25
2023-04-05T15:54:45.651Z,33.17
2023-04-05T15:57:13.735Z,33.38
2023-04-05T15:59:41.944Z,32.86
2023-04-05T16:02:10.709Z,32.97
2023-04-05T16:04:40.560Z,32.65
2023-04-05T16:07:09.916Z,32.45
2023-04-05T16:09:37.994Z,32.50
2023-04-05T16:12:06.309Z,32.61
2023-04-05T16:14:34.501Z,32.86
2023-04-05T16:17:03.340Z,32.54
2023-04-05T16:19:31.362Z,32.88
2023-04-05T16:21:59.530Z,32.97
2023-04-05T16:24:28.594Z,32.61
2023-04-05T16:26:56.674Z,32.38
2023-04-05T16:29:24.578Z,32.38
2023-04-05T16:31:52.554Z,32.53
2023-04-05T16:34:20.527Z,32.57
2023-04-05T16:36:48.522Z,32.61
2023-04-05T16:39:16.714Z,32.64
2023-04-05T16:41:44.691Z,32.73
2023-04-05T16:44:12.847Z,32.81
2023-04-05T16:46:41.246Z,32.97
2023-04-05T16:49:09.672Z,32.99
2023-04-05T16:51:37.860Z,33.18
2023-04-05T16:54:06.035Z,33.15
2023-04-05T16:56:34.213Z,33.28
2023-04-05T16:59:05.062Z,33.47
2023-04-05T17:01:34.909Z,33.32
2023-04-05T17:04:02.899Z,33.54
2023-04-05T17:06:30.861Z,33.66
2023-04-05T17:08:58.810Z,33.56
2023-04-05T17:11:27.695Z,33.69
2023-04-05T17:13:55.719Z,33.58
2023-04-05T17:16:23.708Z,33.50
2023-04-05T17:18:51.696Z,33.61
2023-04-05T17:21:24.514Z,33.79
2023-04-05T17:23:52.451Z,34.07
2023-04-05T17:26:20.640Z,34.30
2023-04-05T17:28:48.664Z,34.47
2023-04-05T17:31:17.246Z,34.66
2023-04-05T17:33:47.757Z,34.56
2023-04-05T17:36:17.930Z,34.62
2023-04-05T17:38:46.216Z,34.69
2023-04-05T17:41:14.141Z,34.81
2023-04-05T17:43:42.204Z,34.83
2023-04-05T17:46:14.627Z,34.94
2023-04-05T17:48:43.722Z,35.17
2023-04-05T17:51:11.915Z,35.61
2023-04-05T17:53:42.968Z,35.73
2023-04-05T17:56:11.098Z,36.08
2023-04-05T17:58:39.253Z,36.80
2023-04-05T18:01:07.367Z,37.27
2023-04-05T18:03:35.383Z,37.89
2023-04-05T18:06:03.562Z,38.65
2023-04-05T18:08:31.809Z,39.17
2023-04-05T18:11:00.996Z,39.54
2023-04-05T18:13:29.763Z,40.03
2023-04-05T18:16:00.240Z,40.31
2023-04-05T18:18:28.685Z,40.73
2023-04-05T18:20:57.544Z,41.06
2023-04-05T18:23:28.555Z,40.84
2023-04-05T18:25:56.808Z,40.46
2023-04-05T18:28:24.764Z,40.54
2023-04-05T18:30:53.153Z,40.39
2023-04-05T18:33:23.592Z,39.99
2023-04-05T18:35:52.800Z,39.78
2023-04-05T18:38:21.388Z,39.61
2023-04-05T18:40:49.747Z,39.74
2023-04-05T18:43:17.998Z,39.74
2023-04-05T18:45:46.082Z,39.83
2023-04-05T18:48:14.113Z,39.95
2023-04-05T18:50:42.196Z,39.98
2023-04-05T18:53:10.671Z,40.00
2023-04-05T18:55:38.852Z,40.45
2023-04-05T18:58:06.950Z,40.74
2023-04-05T19:00:36.292Z,41.18
2023-04-05T19:03:04.694Z,41.13
2023-04-05T19:05:32.769Z,41.51
2023-04-05T19:08:00.637Z,41.52
2023-04-05T19:10:28.862Z,41.48
2023-04-05T19:12:56.999Z,41.40
2023-04-05T19:15:25.107Z,41.46
2023-04-05T19:17:53.575Z,41.78
2023-04-05T19:20:21.701Z,41.98
2023-04-05T19:22:49.765Z,41.94
2023-04-05T19:25:17.737Z,41.89
2023-04-05T19:27:45.994Z,41.83
2023-04-05T19:30:14.110Z,42.10
2023-04-05T19:32:42.334Z,42.38
2023-04-05T19:35:11.185Z,42.52
2023-04-05T19:37:39.817Z,43.06
2023-04-05T19:40:08.475Z,43.33
2023-04-05T19:42:36.569Z,43.49
2023-04-05T19:45:08.801Z,43.66
2023-04-05T19:47:37.313Z,43.74
2023-04-05T19:50:11.807Z,44.41
2023-04-05T19:52:48.071Z,44.16
2023-04-05T19:55:36.004Z,44.21
2023-04-05T19:58:08.448Z,45.33
2023-04-05T20:00:53.699Z,45.19
2023-04-05T20:03:38.514Z,46.50
2023-04-05T20:06:12.004Z,46.05
2023-04-05T20:08:48.101Z,46.13
2023-04-05T20:11:23.293Z,45.96
2023-04-05T20:13:53.263Z,46.03
2023-04-05T20:16:32.285Z,46.48
2023-04-05T20:19:05.466Z,47.06
2023-04-05T20:21:34.603Z,47.84
2023-04-05T20:24:03.297Z,47.84
2023-04-05T20:26:33.185Z,48.17
2023-04-05T20:29:03.549Z,48.35
2023-04-05T20:31:33.877Z,48.38
2023-04-05T20:34:13.360Z,48.61
2023-04-05T20:36:56.063Z,48.98
2023-04-05T20:39:25.117Z,49.01
2023-04-05T20:41:53.173Z,48.33
2023-04-05T20:44:21.149Z,48.48
2023-04-05T20:46:49.225Z,48.60
2023-04-05T20:49:17.548Z,48.83
2023-04-05T20:51:45.550Z,49.33
2023-04-05T20:54:13.624Z,49.32
2023-04-05T20:56:42.303Z,49.53
2023-04-05T20:59:10.887Z,49.97
2023-04-05T21:01:39.658Z,50.33
2023-04-05T21:04:07.851Z,50.61
2023-04-05T21:06:37.910Z,51.20
2023-04-05T21:09:06.370Z,51.26
2023-04-05T21:11:34.486Z,51.19
2023-04-05T21:14:02.604Z,51.38
2023-04-05T21:16:30.798Z,51.61
2023-04-05T21:18:58.770Z,51.09
2023-04-05T21:21:27.213Z,50.74
2023-04-05T21:23:55.237Z,50.67
2023-04-05T21:26:23.180Z,51.53
2023-04-05T21:28:51.646Z,51.24
2023-04-05T21:31:19.601Z,51.95
2023-04-05T21:33:47.629Z,52.28
2023-04-05T21:36:15.864Z,51.88
2023-04-05T21:38:43.835Z,52.25
2023-04-05T21:41:12.207Z,54.00
2023-04-05T21:43:40.209Z,56.44
2023-04-05T21:46:08.230Z,54.01
2023-04-05T21:48:36.284Z,54.49
2023-04-05T21:51:04.363Z,54.75
2023-04-05T21:53:32.327Z,55.10
2023-04-05T21:56:00.191Z,55.24
2023-04-05T21:58:28.105Z,55.44
2023-04-05T22:00:56.062Z,55.90
2023-04-05T22:03:24.340Z,55.70
2023-04-05T22:05:52.287Z,55.80
2023-04-05T22:08:20.185Z,55.65
2023-04-05T22:10:48.353Z,57.00
2023-04-05T22:13:16.317Z,56.44
2023-04-05T22:15:45.513Z,56.04
2023-04-05T22:18:14.257Z,56.43
2023-04-05T22:20:42.342Z,56.16
2023-04-05T22:23:10.308Z,56.34
2023-04-05T22:25:38.297Z,56.38
2023-04-05T22:28:06.360Z,56.60
2023-04-05T22:30:43.919Z,56.42
2023-04-05T22:33:14.476Z,56.17
2023-04-05T22:35:43.516Z,57.05
2023-04-05T22:38:11.647Z,56.57
2023-04-05T22:40:39.814Z,56.79
2023-04-05T22:43:08.158Z,57.11
2023-04-05T22:45:36.081Z,56.34
2023-04-05T22:48:04.063Z,56.32
2023-04-05T22:50:32.727Z,56.92
2023-04-05T22:53:00.625Z,56.29
2023-04-05T22:55:28.604Z,56.36
2023-04-05T22:57:56.738Z,56.55
2023-04-05T23:00:24.741Z,56.81
2023-04-05T23:02:52.807Z,56.75
2023-04-05T23:05:20.763Z,56.47
2023-04-05T23:07:48.693Z,56.22
2023-04-05T23:10:16.829Z,56.04
2023-04-05T23:12:47.643Z,55.80
2023-04-05T23:15:16.111Z,55.96
2023-04-05T23:17:44.136Z,55.62
2023-04-05T23:20:12.712Z,55.49
2023-04-05T23:22:40.607Z,55.49
2023-04-05T23:25:09.267Z,55.52
2023-04-05T23:27:37.248Z,55.46
2023-04-05T23:30:05.627Z,55.65
2023-04-05T23:32:33.612Z,56.32
2023-04-05T23:35:01.840Z,56.65
2023-04-05T23:37:29.843Z,57.06
2023-04-05T23:39:57.779Z,57.50
2023-04-05T23:42:25.938Z,57.60
2023-04-05T23:44:53.832Z,57.73
2023-04-05T23:47:22.068Z,57.50
2023-04-05T23:49:50.229Z,58.00
2023-04-05T23:52:18.176Z,57.97
2023-04-05T23:54:46.042Z,57.95
2023-04-05T23:57:13.928Z,58.42
2023-04-05T23:59:41.879Z,58.75
